sensor_id;sensor_type;location;lat;lon;timestamp;temperature;humidity
51950;DHT22;37974;53.218;6.640;2023-12-22T00:01:12;5.30;99.90
51950;DHT22;37974;53.218;6.640;2023-12-22T00:03:42;5.40;99.90
51950;DHT22;37974;53.218;6.640;2023-12-22T00:06:07;5.50;99.90
51950;DHT22;37974;53.218;6.640;2023-12-22T00:08:33;5.60;99.90
51950;DHT22;37974;53.218;6.640;2023-12-22T00:10:59;5.70;99.90
51950;DHT22;37974;53.218;6.640;2023-12-22T00:13:25;5.70;99.90
51950;DHT22;37974;53.218;6.640;2023-12-22T00:15:51;5.70;99.90
51950;DHT22;37974;53.218;6.640;2023-12-22T00:18:16;5.90;99.90
51950;DHT22;37974;53.218;6.640;2023-12-22T00:20:42;5.70;99.90
51950;DHT22;37974;53.218;6.640;2023-12-22T00:23:08;5.60;99.90
51950;DHT22;37974;53.218;6.640;2023-12-22T00:25:33;5.40;99.90
51950;DHT22;37974;53.218;6.640;2023-12-22T00:27:59;5.30;99.90
51950;DHT22;37974;53.218;6.640;2023-12-22T00:30:25;5.10;99.90
51950;DHT22;37974;53.218;6.640;2023-12-22T00:32:50;5.10;99.90
51950;DHT22;37974;53.218;6.640;2023-12-22T00:35:16;5.00;99.90
51950;DHT22;37974;53.218;6.640;2023-12-22T00:37:42;5.00;99.90
51950;DHT22;37974;53.218;6.640;2023-12-22T00:40:08;5.10;99.90
51950;DHT22;37974;53.218;6.640;2023-12-22T00:42:35;5.10;99.90
51950;DHT22;37974;53.218;6.640;2023-12-22T00:45:01;5.20;99.90
51950;DHT22;37974;53.218;6.640;2023-12-22T00:47:27;5.20;99.90
51950;DHT22;37974;53.218;6.640;2023-12-22T00:49:53;5.10;99.90
51950;DHT22;37974;53.218;6.640;2023-12-22T00:52:19;5.10;99.90
51950;DHT22;37974;53.218;6.640;2023-12-22T00:54:44;5.10;99.90
51950;DHT22;37974;53.218;6.640;2023-12-22T00:57:10;5.10;99.90
51950;DHT22;37974;53.218;6.640;2023-12-22T00:59:37;5.10;99.90
51950;DHT22;37974;53.218;6.640;2023-12-22T01:02:02;5.10;99.90
51950;DHT22;37974;53.218;6.640;2023-12-22T01:04:28;5.10;99.90
51950;DHT22;37974;53.218;6.640;2023-12-22T01:06:54;5.20;99.90
51950;DHT22;37974;53.218;6.640;2023-12-22T01:09:19;5.50;99.90
51950;DHT22;37974;53.218;6.640;2023-12-22T01:11:46;5.20;99.90
51950;DHT22;37974;53.218;6.640;2023-12-22T01:14:11;5.20;99.90
51950;DHT22;37974;53.218;6.640;2023-12-22T01:16:39;5.20;99.90
51950;DHT22;37974;53.218;6.640;2023-12-22T01:19:05;5.20;99.90
51950;DHT22;37974;53.218;6.640;2023-12-22T01:21:31;5.30;99.90
51950;DHT22;37974;53.218;6.640;2023-12-22T01:23:56;5.30;99.90
51950;DHT22;37974;53.218;6.640;2023-12-22T01:26:24;5.30;99.90
51950;DHT22;37974;53.218;6.640;2023-12-22T01:28:50;5.20;99.90
51950;DHT22;37974;53.218;6.640;2023-12-22T01:31:16;5.30;99.90
51950;DHT22;37974;53.218;6.640;2023-12-22T01:33:41;5.40;99.90
51950;DHT22;37974;53.218;6.640;2023-12-22T01:36:07;5.40;99.90
51950;DHT22;37974;53.218;6.640;2023-12-22T01:38:33;5.40;99.90
51950;DHT22;37974;53.218;6.640;2023-12-22T01:40:59;5.40;99.90
51950;DHT22;37974;53.218;6.640;2023-12-22T01:43:25;5.40;99.90
51950;DHT22;37974;53.218;6.640;2023-12-22T01:45:55;5.40;99.90
51950;DHT22;37974;53.218;6.640;2023-12-22T01:48:22;5.40;99.90
51950;DHT22;37974;53.218;6.640;2023-12-22T01:50:50;5.50;99.90
51950;DHT22;37974;53.218;6.640;2023-12-22T01:53:19;5.50;99.90
51950;DHT22;37974;53.218;6.640;2023-12-22T01:55:47;5.50;99.90
51950;DHT22;37974;53.218;6.640;2023-12-22T01:58:13;5.50;99.90
51950;DHT22;37974;53.218;6.640;2023-12-22T02:00:40;5.40;99.90
51950;DHT22;37974;53.218;6.640;2023-12-22T02:03:06;5.40;99.90
51950;DHT22;37974;53.218;6.640;2023-12-22T02:05:32;5.20;99.90
51950;DHT22;37974;53.218;6.640;2023-12-22T02:07:58;5.20;99.90
51950;DHT22;37974;53.218;6.640;2023-12-22T02:10:24;5.20;99.90
51950;DHT22;37974;53.218;6.640;2023-12-22T02:12:50;5.10;99.90
51950;DHT22;37974;53.218;6.640;2023-12-22T02:15:15;5.20;99.90
51950;DHT22;37974;53.218;6.640;2023-12-22T02:17:53;5.30;99.90
51950;DHT22;37974;53.218;6.640;2023-12-22T02:20:21;5.40;99.90
51950;DHT22;37974;53.218;6.640;2023-12-22T02:22:51;5.40;99.90
51950;DHT22;37974;53.218;6.640;2023-12-22T02:25:18;5.40;99.90
51950;DHT22;37974;53.218;6.640;2023-12-22T02:27:45;5.80;99.90
51950;DHT22;37974;53.218;6.640;2023-12-22T02:30:26;5.30;99.90
51950;DHT22;37974;53.218;6.640;2023-12-22T02:32:58;5.20;99.90
51950;DHT22;37974;53.218;6.640;2023-12-22T02:35:26;5.10;99.90
51950;DHT22;37974;53.218;6.640;2023-12-22T02:37:56;5.10;99.90
51950;DHT22;37974;53.218;6.640;2023-12-22T02:40:23;5.40;99.90
51950;DHT22;37974;53.218;6.640;2023-12-22T02:42:52;5.00;99.90
51950;DHT22;37974;53.218;6.640;2023-12-22T02:45:18;4.90;99.90
51950;DHT22;37974;53.218;6.640;2023-12-22T02:47:45;4.90;99.90
51950;DHT22;37974;53.218;6.640;2023-12-22T02:50:12;5.00;99.90
51950;DHT22;37974;53.218;6.640;2023-12-22T02:52:38;5.00;99.90
51950;DHT22;37974;53.218;6.640;2023-12-22T02:55:05;5.00;99.90
51950;DHT22;37974;53.218;6.640;2023-12-22T02:57:31;5.10;99.90
51950;DHT22;37974;53.218;6.640;2023-12-22T02:59:57;5.10;99.90
51950;DHT22;37974;53.218;6.640;2023-12-22T03:02:23;5.20;99.90
51950;DHT22;37974;53.218;6.640;2023-12-22T03:04:48;5.40;99.90
51950;DHT22;37974;53.218;6.640;2023-12-22T03:07:14;5.50;99.90
51950;DHT22;37974;53.218;6.640;2023-12-22T03:09:41;5.40;99.90
51950;DHT22;37974;53.218;6.640;2023-12-22T03:12:07;5.30;99.90
51950;DHT22;37974;53.218;6.640;2023-12-22T03:14:33;5.10;99.90
51950;DHT22;37974;53.218;6.640;2023-12-22T03:17:01;5.00;99.90
51950;DHT22;37974;53.218;6.640;2023-12-22T03:19:27;4.90;99.90
51950;DHT22;37974;53.218;6.640;2023-12-22T03:21:53;4.80;99.90
51950;DHT22;37974;53.218;6.640;2023-12-22T03:24:18;4.60;99.90
51950;DHT22;37974;53.218;6.640;2023-12-22T03:26:45;4.50;99.90
51950;DHT22;37974;53.218;6.640;2023-12-22T03:29:11;4.50;99.90
51950;DHT22;37974;53.218;6.640;2023-12-22T03:31:37;4.60;99.90
51950;DHT22;37974;53.218;6.640;2023-12-22T03:34:03;4.50;99.90
51950;DHT22;37974;53.218;6.640;2023-12-22T03:36:28;4.50;99.90
51950;DHT22;37974;53.218;6.640;2023-12-22T03:38:54;4.50;99.90
51950;DHT22;37974;53.218;6.640;2023-12-22T03:41:20;5.00;99.90
51950;DHT22;37974;53.218;6.640;2023-12-22T03:43:45;4.70;99.90
51950;DHT22;37974;53.218;6.640;2023-12-22T03:46:11;4.80;99.90
51950;DHT22;37974;53.218;6.640;2023-12-22T03:48:37;5.00;99.90
51950;DHT22;37974;53.218;6.640;2023-12-22T03:51:03;5.10;99.90
51950;DHT22;37974;53.218;6.640;2023-12-22T03:53:28;5.10;99.90
51950;DHT22;37974;53.218;6.640;2023-12-22T03:55:55;5.10;99.90
51950;DHT22;37974;53.218;6.640;2023-12-22T03:58:20;5.20;99.90
51950;DHT22;37974;53.218;6.640;2023-12-22T04:00:47;5.40;99.90
51950;DHT22;37974;53.218;6.640;2023-12-22T04:03:14;5.40;99.90
51950;DHT22;37974;53.218;6.640;2023-12-22T04:05:39;5.40;99.90
51950;DHT22;37974;53.218;6.640;2023-12-22T04:08:06;5.50;99.90
51950;DHT22;37974;53.218;6.640;2023-12-22T04:10:31;5.50;99.90
51950;DHT22;37974;53.218;6.640;2023-12-22T04:12:57;5.60;99.90
51950;DHT22;37974;53.218;6.640;2023-12-22T04:15:23;5.60;99.90
51950;DHT22;37974;53.218;6.640;2023-12-22T04:17:49;5.60;99.90
51950;DHT22;37974;53.218;6.640;2023-12-22T04:20:15;5.50;99.90
51950;DHT22;37974;53.218;6.640;2023-12-22T04:22:41;5.50;99.90
51950;DHT22;37974;53.218;6.640;2023-12-22T04:25:07;5.70;99.90
51950;DHT22;37974;53.218;6.640;2023-12-22T04:27:34;5.40;99.90
51950;DHT22;37974;53.218;6.640;2023-12-22T04:30:00;5.80;99.90
51950;DHT22;37974;53.218;6.640;2023-12-22T04:32:25;5.40;99.90
51950;DHT22;37974;53.218;6.640;2023-12-22T04:34:51;5.40;99.90
51950;DHT22;37974;53.218;6.640;2023-12-22T04:37:17;5.50;99.90
51950;DHT22;37974;53.218;6.640;2023-12-22T04:39:42;5.60;99.90
51950;DHT22;37974;53.218;6.640;2023-12-22T04:42:08;5.70;99.90
51950;DHT22;37974;53.218;6.640;2023-12-22T04:44:34;5.80;99.90
51950;DHT22;37974;53.218;6.640;2023-12-22T04:47:00;5.90;99.90
51950;DHT22;37974;53.218;6.640;2023-12-22T04:49:26;6.00;99.90
51950;DHT22;37974;53.218;6.640;2023-12-22T04:51:51;6.00;99.90
51950;DHT22;37974;53.218;6.640;2023-12-22T04:54:17;6.00;99.90
51950;DHT22;37974;53.218;6.640;2023-12-22T04:56:43;6.10;99.90
51950;DHT22;37974;53.218;6.640;2023-12-22T04:59:09;6.10;99.90
51950;DHT22;37974;53.218;6.640;2023-12-22T05:01:34;6.10;99.90
51950;DHT22;37974;53.218;6.640;2023-12-22T05:04:00;6.10;99.90
51950;DHT22;37974;53.218;6.640;2023-12-22T05:06:27;6.00;99.90
51950;DHT22;37974;53.218;6.640;2023-12-22T05:08:55;6.00;99.90
51950;DHT22;37974;53.218;6.640;2023-12-22T05:11:22;6.10;99.90
51950;DHT22;37974;53.218;6.640;2023-12-22T05:13:48;6.10;99.90
51950;DHT22;37974;53.218;6.640;2023-12-22T05:16:14;6.10;99.90
51950;DHT22;37974;53.218;6.640;2023-12-22T05:18:39;6.10;99.90
51950;DHT22;37974;53.218;6.640;2023-12-22T05:21:05;6.20;99.90
51950;DHT22;37974;53.218;6.640;2023-12-22T05:23:31;6.20;99.90
51950;DHT22;37974;53.218;6.640;2023-12-22T05:25:57;6.20;99.90
51950;DHT22;37974;53.218;6.640;2023-12-22T05:28:22;6.20;99.90
51950;DHT22;37974;53.218;6.640;2023-12-22T05:30:48;6.20;99.90
51950;DHT22;37974;53.218;6.640;2023-12-22T05:33:14;6.20;99.90
51950;DHT22;37974;53.218;6.640;2023-12-22T05:35:40;6.30;99.90
51950;DHT22;37974;53.218;6.640;2023-12-22T05:38:05;6.30;99.90
51950;DHT22;37974;53.218;6.640;2023-12-22T05:40:31;6.20;99.90
51950;DHT22;37974;53.218;6.640;2023-12-22T05:42:57;6.30;99.90
51950;DHT22;37974;53.218;6.640;2023-12-22T05:45:23;6.30;99.90
51950;DHT22;37974;53.218;6.640;2023-12-22T05:47:50;6.20;99.90
51950;DHT22;37974;53.218;6.640;2023-12-22T05:50:16;6.30;99.90
51950;DHT22;37974;53.218;6.640;2023-12-22T05:52:42;6.30;99.90
51950;DHT22;37974;53.218;6.640;2023-12-22T05:55:10;6.30;99.90
51950;DHT22;37974;53.218;6.640;2023-12-22T05:57:36;6.30;99.90
51950;DHT22;37974;53.218;6.640;2023-12-22T06:00:02;6.30;99.90
51950;DHT22;37974;53.218;6.640;2023-12-22T06:02:32;6.30;99.90
51950;DHT22;37974;53.218;6.640;2023-12-22T06:04:58;6.30;99.90
51950;DHT22;37974;53.218;6.640;2023-12-22T06:07:24;6.20;99.90
51950;DHT22;37974;53.218;6.640;2023-12-22T06:09:49;6.20;99.90
51950;DHT22;37974;53.218;6.640;2023-12-22T06:12:15;6.20;99.90
51950;DHT22;37974;53.218;6.640;2023-12-22T06:14:41;6.30;99.90
51950;DHT22;37974;53.218;6.640;2023-12-22T06:17:06;6.30;99.90
51950;DHT22;37974;53.218;6.640;2023-12-22T06:19:32;6.30;99.90
51950;DHT22;37974;53.218;6.640;2023-12-22T06:21:58;6.30;99.90
51950;DHT22;37974;53.218;6.640;2023-12-22T06:24:25;6.30;99.90
51950;DHT22;37974;53.218;6.640;2023-12-22T06:26:51;6.40;99.90
51950;DHT22;37974;53.218;6.640;2023-12-22T06:29:17;6.40;99.90
51950;DHT22;37974;53.218;6.640;2023-12-22T06:31:43;6.40;99.90
51950;DHT22;37974;53.218;6.640;2023-12-22T06:34:09;6.30;99.90
51950;DHT22;37974;53.218;6.640;2023-12-22T06:36:34;6.30;99.90
51950;DHT22;37974;53.218;6.640;2023-12-22T06:39:00;6.30;99.90
51950;DHT22;37974;53.218;6.640;2023-12-22T06:41:28;6.30;99.90
51950;DHT22;37974;53.218;6.640;2023-12-22T06:43:55;6.30;99.90
51950;DHT22;37974;53.218;6.640;2023-12-22T06:46:23;6.10;99.90
51950;DHT22;37974;53.218;6.640;2023-12-22T06:48:49;5.70;99.90
51950;DHT22;37974;53.218;6.640;2023-12-22T06:51:24;5.40;99.90
51950;DHT22;37974;53.218;6.640;2023-12-22T06:53:50;5.30;99.90
51950;DHT22;37974;53.218;6.640;2023-12-22T06:56:18;5.20;99.90
51950;DHT22;37974;53.218;6.640;2023-12-22T06:58:44;5.10;99.90
51950;DHT22;37974;53.218;6.640;2023-12-22T07:01:18;5.10;99.90
51950;DHT22;37974;53.218;6.640;2023-12-22T07:03:46;5.00;99.90
51950;DHT22;37974;53.218;6.640;2023-12-22T07:06:11;5.00;99.90
51950;DHT22;37974;53.218;6.640;2023-12-22T07:08:37;5.00;99.90
51950;DHT22;37974;53.218;6.640;2023-12-22T07:11:04;5.10;99.90
51950;DHT22;37974;53.218;6.640;2023-12-22T07:13:30;5.30;99.90
51950;DHT22;37974;53.218;6.640;2023-12-22T07:15:55;5.20;99.90
51950;DHT22;37974;53.218;6.640;2023-12-22T07:18:21;5.30;99.90
51950;DHT22;37974;53.218;6.640;2023-12-22T07:20:47;5.30;99.90
51950;DHT22;37974;53.218;6.640;2023-12-22T07:23:12;5.50;99.90
51950;DHT22;37974;53.218;6.640;2023-12-22T07:25:38;5.60;99.90
51950;DHT22;37974;53.218;6.640;2023-12-22T07:28:05;5.60;99.90
51950;DHT22;37974;53.218;6.640;2023-12-22T07:30:30;5.70;99.90
51950;DHT22;37974;53.218;6.640;2023-12-22T07:32:56;5.60;99.90
51950;DHT22;37974;53.218;6.640;2023-12-22T07:35:22;5.50;99.90
51950;DHT22;37974;53.218;6.640;2023-12-22T07:37:48;5.40;99.90
51950;DHT22;37974;53.218;6.640;2023-12-22T07:40:13;5.40;99.90
51950;DHT22;37974;53.218;6.640;2023-12-22T07:42:39;5.20;99.90
51950;DHT22;37974;53.218;6.640;2023-12-22T07:45:06;5.20;99.90
51950;DHT22;37974;53.218;6.640;2023-12-22T07:47:32;5.10;99.90
51950;DHT22;37974;53.218;6.640;2023-12-22T07:49:58;5.10;99.90
51950;DHT22;37974;53.218;6.640;2023-12-22T07:52:24;5.10;99.90
51950;DHT22;37974;53.218;6.640;2023-12-22T07:54:49;5.10;99.90
51950;DHT22;37974;53.218;6.640;2023-12-22T07:57:16;5.10;99.90
51950;DHT22;37974;53.218;6.640;2023-12-22T07:59:42;5.00;99.90
51950;DHT22;37974;53.218;6.640;2023-12-22T08:02:08;5.10;99.90
51950;DHT22;37974;53.218;6.640;2023-12-22T08:04:33;5.00;99.90
51950;DHT22;37974;53.218;6.640;2023-12-22T08:06:59;5.00;99.90
51950;DHT22;37974;53.218;6.640;2023-12-22T08:09:25;5.10;99.90
51950;DHT22;37974;53.218;6.640;2023-12-22T08:11:51;5.10;99.90
51950;DHT22;37974;53.218;6.640;2023-12-22T08:14:19;5.10;99.90
51950;DHT22;37974;53.218;6.640;2023-12-22T08:16:44;5.10;99.90
51950;DHT22;37974;53.218;6.640;2023-12-22T08:19:10;5.20;99.90
51950;DHT22;37974;53.218;6.640;2023-12-22T08:21:36;5.10;99.90
51950;DHT22;37974;53.218;6.640;2023-12-22T08:24:02;5.20;99.90
51950;DHT22;37974;53.218;6.640;2023-12-22T08:26:27;5.20;99.90
51950;DHT22;37974;53.218;6.640;2023-12-22T08:28:53;5.20;99.90
51950;DHT22;37974;53.218;6.640;2023-12-22T08:31:19;5.40;99.90
51950;DHT22;37974;53.218;6.640;2023-12-22T08:33:45;5.50;99.90
51950;DHT22;37974;53.218;6.640;2023-12-22T08:36:11;5.50;99.90
51950;DHT22;37974;53.218;6.640;2023-12-22T08:38:37;5.60;99.90
51950;DHT22;37974;53.218;6.640;2023-12-22T08:41:07;5.60;99.90
51950;DHT22;37974;53.218;6.640;2023-12-22T08:43:33;5.70;99.90
51950;DHT22;37974;53.218;6.640;2023-12-22T08:45:59;5.70;99.90
51950;DHT22;37974;53.218;6.640;2023-12-22T08:48:25;5.80;99.90
51950;DHT22;37974;53.218;6.640;2023-12-22T08:50:51;5.90;99.90
51950;DHT22;37974;53.218;6.640;2023-12-22T08:53:17;5.90;99.90
51950;DHT22;37974;53.218;6.640;2023-12-22T08:55:42;5.90;99.90
51950;DHT22;37974;53.218;6.640;2023-12-22T08:58:08;6.00;99.90
51950;DHT22;37974;53.218;6.640;2023-12-22T09:00:34;6.00;99.90
51950;DHT22;37974;53.218;6.640;2023-12-22T09:02:59;5.90;99.90
51950;DHT22;37974;53.218;6.640;2023-12-22T09:05:25;6.00;99.90
51950;DHT22;37974;53.218;6.640;2023-12-22T09:07:51;6.00;99.90
51950;DHT22;37974;53.218;6.640;2023-12-22T09:10:16;6.00;99.90
51950;DHT22;37974;53.218;6.640;2023-12-22T09:12:42;6.00;99.90
51950;DHT22;37974;53.218;6.640;2023-12-22T09:15:08;6.00;99.90
51950;DHT22;37974;53.218;6.640;2023-12-22T09:17:33;6.10;99.90
51950;DHT22;37974;53.218;6.640;2023-12-22T09:20:00;6.00;99.90
51950;DHT22;37974;53.218;6.640;2023-12-22T09:22:26;6.00;99.90
51950;DHT22;37974;53.218;6.640;2023-12-22T09:24:51;6.10;99.90
51950;DHT22;37974;53.218;6.640;2023-12-22T09:27:17;6.10;99.90
51950;DHT22;37974;53.218;6.640;2023-12-22T09:29:43;6.10;99.90
51950;DHT22;37974;53.218;6.640;2023-12-22T09:32:08;6.10;99.90
51950;DHT22;37974;53.218;6.640;2023-12-22T09:34:34;6.10;99.90
51950;DHT22;37974;53.218;6.640;2023-12-22T09:37:00;6.10;99.90
51950;DHT22;37974;53.218;6.640;2023-12-22T09:39:26;6.10;99.90
51950;DHT22;37974;53.218;6.640;2023-12-22T09:41:54;6.20;99.90
51950;DHT22;37974;53.218;6.640;2023-12-22T09:44:21;6.20;99.90
51950;DHT22;37974;53.218;6.640;2023-12-22T09:46:48;6.20;99.90
51950;DHT22;37974;53.218;6.640;2023-12-22T09:49:18;6.30;99.90
51950;DHT22;37974;53.218;6.640;2023-12-22T09:51:44;6.50;99.90
51950;DHT22;37974;53.218;6.640;2023-12-22T09:54:10;6.30;99.90
51950;DHT22;37974;53.218;6.640;2023-12-22T09:56:37;6.40;99.90
51950;DHT22;37974;53.218;6.640;2023-12-22T09:59:11;6.40;99.90
51950;DHT22;37974;53.218;6.640;2023-12-22T10:01:43;6.50;99.90
51950;DHT22;37974;53.218;6.640;2023-12-22T10:04:10;6.50;99.90
51950;DHT22;37974;53.218;6.640;2023-12-22T10:06:36;6.60;99.90
51950;DHT22;37974;53.218;6.640;2023-12-22T10:09:02;6.60;99.90
51950;DHT22;37974;53.218;6.640;2023-12-22T10:11:32;6.60;99.90
51950;DHT22;37974;53.218;6.640;2023-12-22T10:13:59;6.70;99.90
51950;DHT22;37974;53.218;6.640;2023-12-22T10:16:25;6.70;99.90
51950;DHT22;37974;53.218;6.640;2023-12-22T10:18:52;6.70;99.90
51950;DHT22;37974;53.218;6.640;2023-12-22T10:21:18;6.70;99.90
51950;DHT22;37974;53.218;6.640;2023-12-22T10:23:44;6.70;99.90
51950;DHT22;37974;53.218;6.640;2023-12-22T10:26:11;6.80;99.90
51950;DHT22;37974;53.218;6.640;2023-12-22T10:28:37;6.80;99.90
51950;DHT22;37974;53.218;6.640;2023-12-22T10:31:03;6.80;99.90
51950;DHT22;37974;53.218;6.640;2023-12-22T10:33:32;6.80;99.90
51950;DHT22;37974;53.218;6.640;2023-12-22T10:35:59;6.90;99.90
51950;DHT22;37974;53.218;6.640;2023-12-22T10:38:26;6.90;99.90
51950;DHT22;37974;53.218;6.640;2023-12-22T10:40:53;6.90;99.90
51950;DHT22;37974;53.218;6.640;2023-12-22T10:43:18;7.00;99.90
51950;DHT22;37974;53.218;6.640;2023-12-22T10:45:44;7.00;99.90
51950;DHT22;37974;53.218;6.640;2023-12-22T10:48:10;7.00;99.90
51950;DHT22;37974;53.218;6.640;2023-12-22T10:50:36;7.00;99.90
51950;DHT22;37974;53.218;6.640;2023-12-22T10:53:05;7.00;99.90
51950;DHT22;37974;53.218;6.640;2023-12-22T10:55:31;7.00;99.90
51950;DHT22;37974;53.218;6.640;2023-12-22T10:58:02;7.00;99.90
51950;DHT22;37974;53.218;6.640;2023-12-22T11:00:29;7.00;99.90
51950;DHT22;37974;53.218;6.640;2023-12-22T11:03:01;7.00;99.90
51950;DHT22;37974;53.218;6.640;2023-12-22T11:05:27;7.00;99.90
51950;DHT22;37974;53.218;6.640;2023-12-22T11:07:55;7.00;99.90
51950;DHT22;37974;53.218;6.640;2023-12-22T11:10:22;7.00;99.90
51950;DHT22;37974;53.218;6.640;2023-12-22T11:12:48;7.00;99.90
51950;DHT22;37974;53.218;6.640;2023-12-22T11:15:16;7.00;99.90
51950;DHT22;37974;53.218;6.640;2023-12-22T11:17:44;7.00;99.90
51950;DHT22;37974;53.218;6.640;2023-12-22T11:20:10;7.00;99.90
51950;DHT22;37974;53.218;6.640;2023-12-22T11:22:38;7.10;99.90
51950;DHT22;37974;53.218;6.640;2023-12-22T11:25:07;7.10;99.90
51950;DHT22;37974;53.218;6.640;2023-12-22T11:27:34;7.10;99.90
51950;DHT22;37974;53.218;6.640;2023-12-22T11:30:02;7.10;99.90
51950;DHT22;37974;53.218;6.640;2023-12-22T11:32:29;7.10;99.90
51950;DHT22;37974;53.218;6.640;2023-12-22T11:34:57;7.20;99.90
51950;DHT22;37974;53.218;6.640;2023-12-22T11:37:24;7.20;99.90
51950;DHT22;37974;53.218;6.640;2023-12-22T11:39:50;7.10;99.90
51950;DHT22;37974;53.218;6.640;2023-12-22T11:42:19;7.20;99.90
51950;DHT22;37974;53.218;6.640;2023-12-22T11:44:45;7.20;99.90
51950;DHT22;37974;53.218;6.640;2023-12-22T11:47:11;7.20;99.90
51950;DHT22;37974;53.218;6.640;2023-12-22T11:49:39;7.20;99.90
51950;DHT22;37974;53.218;6.640;2023-12-22T11:52:15;7.30;99.90
51950;DHT22;37974;53.218;6.640;2023-12-22T11:54:52;7.30;99.90
51950;DHT22;37974;53.218;6.640;2023-12-22T11:57:31;7.30;99.90
51950;DHT22;37974;53.218;6.640;2023-12-22T12:00:00;7.30;99.90
51950;DHT22;37974;53.218;6.640;2023-12-22T12:02:26;7.30;99.90
51950;DHT22;37974;53.218;6.640;2023-12-22T12:04:53;7.30;99.90
51950;DHT22;37974;53.218;6.640;2023-12-22T12:07:43;7.30;99.90
51950;DHT22;37974;53.218;6.640;2023-12-22T12:10:12;7.30;99.90
51950;DHT22;37974;53.218;6.640;2023-12-22T12:12:38;7.30;99.90
51950;DHT22;37974;53.218;6.640;2023-12-22T12:15:17;7.30;99.90
51950;DHT22;37974;53.218;6.640;2023-12-22T12:17:43;7.30;99.90
51950;DHT22;37974;53.218;6.640;2023-12-22T12:20:10;7.30;99.90
51950;DHT22;37974;53.218;6.640;2023-12-22T12:22:37;7.30;99.90
51950;DHT22;37974;53.218;6.640;2023-12-22T12:25:09;7.30;99.90
51950;DHT22;37974;53.218;6.640;2023-12-22T12:27:36;7.30;99.90
51950;DHT22;37974;53.218;6.640;2023-12-22T12:30:10;7.40;99.90
51950;DHT22;37974;53.218;6.640;2023-12-22T12:32:36;7.40;99.90
51950;DHT22;37974;53.218;6.640;2023-12-22T12:35:03;7.40;99.90
51950;DHT22;37974;53.218;6.640;2023-12-22T12:37:29;7.40;99.90
51950;DHT22;37974;53.218;6.640;2023-12-22T12:39:58;7.30;99.90
51950;DHT22;37974;53.218;6.640;2023-12-22T12:42:28;7.30;99.90
51950;DHT22;37974;53.218;6.640;2023-12-22T12:44:55;7.30;99.90
51950;DHT22;37974;53.218;6.640;2023-12-22T12:47:21;7.30;99.90
51950;DHT22;37974;53.218;6.640;2023-12-22T12:49:52;7.30;99.90
51950;DHT22;37974;53.218;6.640;2023-12-22T12:52:21;7.30;99.90
51950;DHT22;37974;53.218;6.640;2023-12-22T12:54:47;7.30;99.90
51950;DHT22;37974;53.218;6.640;2023-12-22T12:57:16;7.20;99.90
51950;DHT22;37974;53.218;6.640;2023-12-22T12:59:45;7.20;99.90
51950;DHT22;37974;53.218;6.640;2023-12-22T13:02:12;7.20;99.90
51950;DHT22;37974;53.218;6.640;2023-12-22T13:04:37;7.20;99.90
51950;DHT22;37974;53.218;6.640;2023-12-22T13:07:03;7.20;99.90
51950;DHT22;37974;53.218;6.640;2023-12-22T13:09:32;7.10;99.90
51950;DHT22;37974;53.218;6.640;2023-12-22T13:11:59;7.10;99.90
51950;DHT22;37974;53.218;6.640;2023-12-22T13:14:26;7.10;99.90
51950;DHT22;37974;53.218;6.640;2023-12-22T13:16:53;7.10;99.90
51950;DHT22;37974;53.218;6.640;2023-12-22T13:19:22;7.10;99.90
51950;DHT22;37974;53.218;6.640;2023-12-22T13:21:50;7.10;99.90
51950;DHT22;37974;53.218;6.640;2023-12-22T13:24:16;7.00;99.90
51950;DHT22;37974;53.218;6.640;2023-12-22T13:26:43;7.00;99.90
51950;DHT22;37974;53.218;6.640;2023-12-22T13:29:10;7.00;99.90
51950;DHT22;37974;53.218;6.640;2023-12-22T13:31:38;7.00;99.90
51950;DHT22;37974;53.218;6.640;2023-12-22T13:34:09;7.00;99.90
51950;DHT22;37974;53.218;6.640;2023-12-22T13:36:35;6.90;99.90
51950;DHT22;37974;53.218;6.640;2023-12-22T13:39:03;6.90;99.90
51950;DHT22;37974;53.218;6.640;2023-12-22T13:41:33;6.90;99.90
51950;DHT22;37974;53.218;6.640;2023-12-22T13:44:03;6.90;99.90
51950;DHT22;37974;53.218;6.640;2023-12-22T13:46:29;6.80;99.90
51950;DHT22;37974;53.218;6.640;2023-12-22T13:48:55;6.80;99.90
51950;DHT22;37974;53.218;6.640;2023-12-22T13:51:21;6.70;99.90
51950;DHT22;37974;53.218;6.640;2023-12-22T13:53:47;6.70;99.90
51950;DHT22;37974;53.218;6.640;2023-12-22T13:56:14;6.60;99.90
51950;DHT22;37974;53.218;6.640;2023-12-22T13:58:45;6.60;99.90
51950;DHT22;37974;53.218;6.640;2023-12-22T14:01:15;6.60;99.90
51950;DHT22;37974;53.218;6.640;2023-12-22T14:03:42;6.60;99.90
51950;DHT22;37974;53.218;6.640;2023-12-22T14:06:08;6.60;99.90
51950;DHT22;37974;53.218;6.640;2023-12-22T14:08:36;6.60;99.90
51950;DHT22;37974;53.218;6.640;2023-12-22T14:11:01;6.60;99.90
51950;DHT22;37974;53.218;6.640;2023-12-22T14:13:27;6.60;99.90
51950;DHT22;37974;53.218;6.640;2023-12-22T14:15:53;6.60;99.90
51950;DHT22;37974;53.218;6.640;2023-12-22T14:18:19;6.60;99.90
51950;DHT22;37974;53.218;6.640;2023-12-22T14:20:44;6.60;99.90
51950;DHT22;37974;53.218;6.640;2023-12-22T14:23:11;6.60;99.90
51950;DHT22;37974;53.218;6.640;2023-12-22T14:25:42;6.60;99.90
51950;DHT22;37974;53.218;6.640;2023-12-22T14:28:08;6.60;99.90
51950;DHT22;37974;53.218;6.640;2023-12-22T14:30:34;6.60;99.90
51950;DHT22;37974;53.218;6.640;2023-12-22T14:32:59;6.60;99.90
51950;DHT22;37974;53.218;6.640;2023-12-22T14:35:25;6.60;99.90
51950;DHT22;37974;53.218;6.640;2023-12-22T14:37:51;6.60;99.90
51950;DHT22;37974;53.218;6.640;2023-12-22T14:40:17;6.60;99.90
51950;DHT22;37974;53.218;6.640;2023-12-22T14:42:42;6.50;99.90
51950;DHT22;37974;53.218;6.640;2023-12-22T14:45:08;6.50;99.90
51950;DHT22;37974;53.218;6.640;2023-12-22T14:47:34;6.50;99.90
51950;DHT22;37974;53.218;6.640;2023-12-22T14:50:01;6.40;99.90
51950;DHT22;37974;53.218;6.640;2023-12-22T14:52:30;6.40;99.90
51950;DHT22;37974;53.218;6.640;2023-12-22T14:54:59;6.40;99.90
51950;DHT22;37974;53.218;6.640;2023-12-22T14:57:26;6.40;99.90
51950;DHT22;37974;53.218;6.640;2023-12-22T14:59:54;6.40;99.90
51950;DHT22;37974;53.218;6.640;2023-12-22T15:02:20;6.30;99.90
51950;DHT22;37974;53.218;6.640;2023-12-22T15:04:46;6.30;99.90
51950;DHT22;37974;53.218;6.640;2023-12-22T15:07:16;6.40;99.90
51950;DHT22;37974;53.218;6.640;2023-12-22T15:09:42;6.30;99.90
51950;DHT22;37974;53.218;6.640;2023-12-22T15:12:07;6.40;99.90
51950;DHT22;37974;53.218;6.640;2023-12-22T15:14:33;6.30;99.90
51950;DHT22;37974;53.218;6.640;2023-12-22T15:16:59;6.40;99.90
51950;DHT22;37974;53.218;6.640;2023-12-22T15:19:25;6.30;99.90
51950;DHT22;37974;53.218;6.640;2023-12-22T15:21:51;6.30;99.90
51950;DHT22;37974;53.218;6.640;2023-12-22T15:24:17;6.30;99.90
51950;DHT22;37974;53.218;6.640;2023-12-22T15:26:43;6.40;99.90
51950;DHT22;37974;53.218;6.640;2023-12-22T15:29:09;6.40;99.90
51950;DHT22;37974;53.218;6.640;2023-12-22T15:31:35;6.50;99.90
51950;DHT22;37974;53.218;6.640;2023-12-22T15:34:01;6.40;99.90
51950;DHT22;37974;53.218;6.640;2023-12-22T15:36:27;6.40;99.90
51950;DHT22;37974;53.218;6.640;2023-12-22T15:38:54;6.40;99.90
51950;DHT22;37974;53.218;6.640;2023-12-22T15:41:19;6.40;99.90